Daisinmaru No.11 — JK5352 — position and weather

sailwx.info

Track history (hours):
 
Tides and Currents Weather Stations Pressure Air Temp Water Temp Dewpoint Dewpoint Depression Visibility Wind Speed Wind Dir Waves Ship Positions

Daisinmaru No.11

Last reported at 2016-Aug-24 23:33 UTC. Time now 2016-Aug-27 08:09 UTC.
Position N 35°27' E 139°59'.

Length 52 m; draft 5.2 m.

Type: Cargo ship. MMSI: 431000667.

Date/timePositionNaut miles runAvg speedWind from/ knotsBaromVisibWave heightAir tempDewpointWater temp
2016-Aug-24 23:33N 35°27' E 139°59'0 0.0
2016-Aug-24 01:33N 35°27' E 139°60'7 6.7
2016-Aug-24 00:33N 35°33' E 140°04'1 0.1
2016-Aug-23 08:33N 35°32' E 140°06'6 6.2
2016-Aug-23 07:33N 35°32' E 139°58'10 9.6
2016-Aug-23 06:33N 35°30' E 139°47'3 3.5
2016-Aug-23 05:33N 35°29' E 139°43'0 0.0
2016-Aug-23 04:33N 35°29' E 139°43'1 0.5
2016-Aug-23 03:34N 35°30' E 139°43'8 8.4
2016-Aug-23 02:34N 35°30' E 139°53'6 5.6
2016-Aug-23 01:33N 35°27' E 139°60'0 0.0
2016-Aug-23 00:33N 35°27' E 139°60'0 0.0
2016-Aug-22 23:33N 35°27' E 139°60'0 0.0
2016-Aug-22 22:33N 35°27' E 139°60'  
Track history (hours):
 
Tides and Currents Weather Stations Pressure Air Temp Water Temp Dewpoint Dewpoint Depression Visibility Wind Speed Wind Dir Waves Ship Positions

Daisinmaru No.11

Last reported at 2016-Aug-24 23:33 UTC. Time now 2016-Aug-27 08:09 UTC.
Position N 35°27' E 139°59'.

Length 52 m; draft 5.2 m.

Type: Cargo ship. MMSI: 431000667.

Date/timePositionNaut miles runAvg speedWind from/ knotsBaromVisibWave heightAir tempDewpointWater temp
2016-Aug-24 23:33N 35°27' E 139°59'0 0.0
2016-Aug-24 01:33N 35°27' E 139°60'7 6.7
2016-Aug-24 00:33N 35°33' E 140°04'1 0.1
2016-Aug-23 08:33N 35°32' E 140°06'6 6.2
2016-Aug-23 07:33N 35°32' E 139°58'10 9.6
2016-Aug-23 06:33N 35°30' E 139°47'3 3.5
2016-Aug-23 05:33N 35°29' E 139°43'0 0.0
2016-Aug-23 04:33N 35°29' E 139°43'1 0.5
2016-Aug-23 03:34N 35°30' E 139°43'8 8.4
2016-Aug-23 02:34N 35°30' E 139°53'6 5.6
2016-Aug-23 01:33N 35°27' E 139°60'0 0.0
2016-Aug-23 00:33N 35°27' E 139°60'0 0.0
2016-Aug-22 23:33N 35°27' E 139°60'0 0.0
2016-Aug-22 22:33N 35°27' E 139°60'  

Dump ship's entire track history